sensor_id;sensor_type;location;lat;lon;timestamp;temperature;humidity
44886;DHT22;36669;51.428;21.162;2023-09-19T00:00:47;18.00;99.90
44886;DHT22;36669;51.428;21.162;2023-09-19T00:03:14;17.90;99.90
44886;DHT22;36669;51.428;21.162;2023-09-19T00:05:41;17.90;99.90
44886;DHT22;36669;51.428;21.162;2023-09-19T00:08:11;17.90;99.90
44886;DHT22;36669;51.428;21.162;2023-09-19T00:10:41;17.80;99.90
44886;DHT22;36669;51.428;21.162;2023-09-19T00:13:07;17.80;99.90
44886;DHT22;36669;51.428;21.162;2023-09-19T00:15:45;17.70;99.90
44886;DHT22;36669;51.428;21.162;2023-09-19T00:18:20;17.70;99.90
44886;DHT22;36669;51.428;21.162;2023-09-19T00:20:50;17.70;99.90
44886;DHT22;36669;51.428;21.162;2023-09-19T00:23:20;17.60;99.90
44886;DHT22;36669;51.428;21.162;2023-09-19T00:25:48;17.60;99.90
44886;DHT22;36669;51.428;21.162;2023-09-19T00:28:15;17.60;99.90
44886;DHT22;36669;51.428;21.162;2023-09-19T00:30:44;17.60;99.90
44886;DHT22;36669;51.428;21.162;2023-09-19T00:33:14;17.50;99.90
44886;DHT22;36669;51.428;21.162;2023-09-19T00:35:53;17.60;99.90
44886;DHT22;36669;51.428;21.162;2023-09-19T00:38:21;17.60;99.90
44886;DHT22;36669;51.428;21.162;2023-09-19T00:40:51;17.50;99.90
44886;DHT22;36669;51.428;21.162;2023-09-19T00:43:18;17.50;99.90
44886;DHT22;36669;51.428;21.162;2023-09-19T00:45:48;17.50;99.90
44886;DHT22;36669;51.428;21.162;2023-09-19T00:48:17;17.50;99.90
44886;DHT22;36669;51.428;21.162;2023-09-19T00:50:47;17.50;99.90
44886;DHT22;36669;51.428;21.162;2023-09-19T00:53:17;17.50;99.90
44886;DHT22;36669;51.428;21.162;2023-09-19T00:55:47;17.40;99.90
44886;DHT22;36669;51.428;21.162;2023-09-19T00:58:13;17.50;99.90
44886;DHT22;36669;51.428;21.162;2023-09-19T01:00:41;17.40;99.90
44886;DHT22;36669;51.428;21.162;2023-09-19T01:03:10;17.40;99.90
44886;DHT22;36669;51.428;21.162;2023-09-19T01:05:37;17.40;99.90
44886;DHT22;36669;51.428;21.162;2023-09-19T01:08:05;17.40;99.90
44886;DHT22;36669;51.428;21.162;2023-09-19T01:10:35;17.40;99.90
44886;DHT22;36669;51.428;21.162;2023-09-19T01:13:55;17.40;99.90
44886;DHT22;36669;51.428;21.162;2023-09-19T01:31:21;17.30;99.90
44886;DHT22;36669;51.428;21.162;2023-09-19T01:34:05;17.40;99.90
44886;DHT22;36669;51.428;21.162;2023-09-19T01:36:45;17.30;99.90
44886;DHT22;36669;51.428;21.162;2023-09-19T01:39:13;17.40;99.90
44886;DHT22;36669;51.428;21.162;2023-09-19T01:41:58;17.40;99.90
44886;DHT22;36669;51.428;21.162;2023-09-19T01:44:57;17.30;99.90
44886;DHT22;36669;51.428;21.162;2023-09-19T01:47:37;17.40;99.90
44886;DHT22;36669;51.428;21.162;2023-09-19T01:51:18;17.50;99.90
44886;DHT22;36669;51.428;21.162;2023-09-19T01:54:00;17.50;99.90
44886;DHT22;36669;51.428;21.162;2023-09-19T01:56:28;17.50;99.90
44886;DHT22;36669;51.428;21.162;2023-09-19T01:58:59;17.50;99.90
44886;DHT22;36669;51.428;21.162;2023-09-19T02:01:32;17.50;99.90
44886;DHT22;36669;51.428;21.162;2023-09-19T02:04:00;17.50;99.90
44886;DHT22;36669;51.428;21.162;2023-09-19T02:06:27;17.50;99.90
44886;DHT22;36669;51.428;21.162;2023-09-19T02:08:55;17.50;99.90
44886;DHT22;36669;51.428;21.162;2023-09-19T02:11:23;17.50;99.90
44886;DHT22;36669;51.428;21.162;2023-09-19T02:13:53;17.60;99.90
44886;DHT22;36669;51.428;21.162;2023-09-19T02:16:21;17.60;99.90
44886;DHT22;36669;51.428;21.162;2023-09-19T02:18:51;17.60;99.90
44886;DHT22;36669;51.428;21.162;2023-09-19T02:21:18;17.60;99.90
44886;DHT22;36669;51.428;21.162;2023-09-19T02:23:47;17.60;99.90
44886;DHT22;36669;51.428;21.162;2023-09-19T02:26:14;17.60;99.90
44886;DHT22;36669;51.428;21.162;2023-09-19T02:28:41;17.60;99.90
44886;DHT22;36669;51.428;21.162;2023-09-19T02:31:10;17.60;99.90
44886;DHT22;36669;51.428;21.162;2023-09-19T02:33:37;17.60;99.90
44886;DHT22;36669;51.428;21.162;2023-09-19T02:36:05;17.60;99.90
44886;DHT22;36669;51.428;21.162;2023-09-19T02:38:33;17.50;99.90
44886;DHT22;36669;51.428;21.162;2023-09-19T02:41:00;17.50;99.90
44886;DHT22;36669;51.428;21.162;2023-09-19T02:43:28;17.50;99.90
44886;DHT22;36669;51.428;21.162;2023-09-19T02:45:55;17.50;99.90
44886;DHT22;36669;51.428;21.162;2023-09-19T02:48:24;17.50;99.90
44886;DHT22;36669;51.428;21.162;2023-09-19T02:50:54;17.50;99.90
44886;DHT22;36669;51.428;21.162;2023-09-19T02:53:22;17.50;99.90
44886;DHT22;36669;51.428;21.162;2023-09-19T02:55:50;17.50;99.90
44886;DHT22;36669;51.428;21.162;2023-09-19T02:58:20;17.50;99.90
44886;DHT22;36669;51.428;21.162;2023-09-19T03:00:46;17.50;99.90
44886;DHT22;36669;51.428;21.162;2023-09-19T03:03:15;17.50;99.90
44886;DHT22;36669;51.428;21.162;2023-09-19T03:05:43;17.60;99.90
44886;DHT22;36669;51.428;21.162;2023-09-19T03:08:18;17.50;99.90
44886;DHT22;36669;51.428;21.162;2023-09-19T03:10:49;17.60;99.90
44886;DHT22;36669;51.428;21.162;2023-09-19T03:13:16;17.60;99.90
44886;DHT22;36669;51.428;21.162;2023-09-19T03:15:43;17.60;99.90
44886;DHT22;36669;51.428;21.162;2023-09-19T03:18:14;17.60;99.90
44886;DHT22;36669;51.428;21.162;2023-09-19T03:20:41;17.60;99.90
44886;DHT22;36669;51.428;21.162;2023-09-19T03:23:08;17.50;99.90
44886;DHT22;36669;51.428;21.162;2023-09-19T03:25:35;17.50;99.90
44886;DHT22;36669;51.428;21.162;2023-09-19T03:28:03;17.60;99.90
44886;DHT22;36669;51.428;21.162;2023-09-19T03:30:32;17.70;99.90
44886;DHT22;36669;51.428;21.162;2023-09-19T03:32:59;17.60;99.90
44886;DHT22;36669;51.428;21.162;2023-09-19T03:35:27;17.70;99.90
44886;DHT22;36669;51.428;21.162;2023-09-19T03:37:54;17.60;99.90
44886;DHT22;36669;51.428;21.162;2023-09-19T03:40:21;17.60;99.90
44886;DHT22;36669;51.428;21.162;2023-09-19T03:42:51;17.60;99.90
44886;DHT22;36669;51.428;21.162;2023-09-19T03:45:18;17.60;99.90
44886;DHT22;36669;51.428;21.162;2023-09-19T03:47:45;17.60;99.90
44886;DHT22;36669;51.428;21.162;2023-09-19T03:50:15;17.60;99.90
44886;DHT22;36669;51.428;21.162;2023-09-19T03:52:45;17.60;99.90
44886;DHT22;36669;51.428;21.162;2023-09-19T03:55:13;17.60;99.90
44886;DHT22;36669;51.428;21.162;2023-09-19T03:57:40;17.60;99.90
44886;DHT22;36669;51.428;21.162;2023-09-19T04:00:07;17.60;99.90
44886;DHT22;36669;51.428;21.162;2023-09-19T04:02:42;17.60;99.90
44886;DHT22;36669;51.428;21.162;2023-09-19T04:05:10;17.60;99.90
44886;DHT22;36669;51.428;21.162;2023-09-19T04:07:37;17.60;99.90
44886;DHT22;36669;51.428;21.162;2023-09-19T04:10:05;17.60;99.90
44886;DHT22;36669;51.428;21.162;2023-09-19T04:12:35;17.60;99.90
44886;DHT22;36669;51.428;21.162;2023-09-19T04:15:01;17.60;99.90
44886;DHT22;36669;51.428;21.162;2023-09-19T04:17:28;17.60;99.90
44886;DHT22;36669;51.428;21.162;2023-09-19T04:19:56;17.60;99.90
44886;DHT22;36669;51.428;21.162;2023-09-19T04:22:23;17.60;99.90
44886;DHT22;36669;51.428;21.162;2023-09-19T04:24:52;17.70;99.90
44886;DHT22;36669;51.428;21.162;2023-09-19T04:27:20;17.70;99.90
44886;DHT22;36669;51.428;21.162;2023-09-19T04:29:48;17.70;99.90
44886;DHT22;36669;51.428;21.162;2023-09-19T04:32:17;17.70;99.90
44886;DHT22;36669;51.428;21.162;2023-09-19T04:34:46;17.70;99.90
44886;DHT22;36669;51.428;21.162;2023-09-19T04:37:17;17.70;99.90
44886;DHT22;36669;51.428;21.162;2023-09-19T04:39:44;17.70;99.90
44886;DHT22;36669;51.428;21.162;2023-09-19T04:42:13;17.70;99.90
44886;DHT22;36669;51.428;21.162;2023-09-19T04:44:41;17.80;99.90
44886;DHT22;36669;51.428;21.162;2023-09-19T04:47:09;17.80;99.90
44886;DHT22;36669;51.428;21.162;2023-09-19T04:49:38;17.90;99.90
44886;DHT22;36669;51.428;21.162;2023-09-19T04:52:06;17.90;99.90
44886;DHT22;36669;51.428;21.162;2023-09-19T04:54:33;17.80;99.90
44886;DHT22;36669;51.428;21.162;2023-09-19T04:57:00;17.80;99.90
44886;DHT22;36669;51.428;21.162;2023-09-19T04:59:30;17.90;99.90
44886;DHT22;36669;51.428;21.162;2023-09-19T05:02:00;17.90;99.90
44886;DHT22;36669;51.428;21.162;2023-09-19T05:04:26;17.90;99.90
44886;DHT22;36669;51.428;21.162;2023-09-19T05:06:53;18.00;99.90
44886;DHT22;36669;51.428;21.162;2023-09-19T05:09:20;18.00;99.90
44886;DHT22;36669;51.428;21.162;2023-09-19T05:11:48;18.00;99.90
44886;DHT22;36669;51.428;21.162;2023-09-19T05:14:15;18.00;99.90
44886;DHT22;36669;51.428;21.162;2023-09-19T05:16:42;18.00;99.90
44886;DHT22;36669;51.428;21.162;2023-09-19T05:19:09;18.00;99.90
44886;DHT22;36669;51.428;21.162;2023-09-19T05:21:38;18.00;99.90
44886;DHT22;36669;51.428;21.162;2023-09-19T05:24:06;18.00;99.90
44886;DHT22;36669;51.428;21.162;2023-09-19T05:26:33;18.10;99.90
44886;DHT22;36669;51.428;21.162;2023-09-19T05:29:00;18.10;99.90
44886;DHT22;36669;51.428;21.162;2023-09-19T05:31:30;18.20;99.90
44886;DHT22;36669;51.428;21.162;2023-09-19T05:33:59;18.20;99.90
44886;DHT22;36669;51.428;21.162;2023-09-19T05:36:29;18.20;99.90
44886;DHT22;36669;51.428;21.162;2023-09-19T05:38:57;18.20;99.90
44886;DHT22;36669;51.428;21.162;2023-09-19T05:41:24;18.30;99.90
44886;DHT22;36669;51.428;21.162;2023-09-19T05:43:51;18.30;99.90
44886;DHT22;36669;51.428;21.162;2023-09-19T05:46:18;18.30;99.90
44886;DHT22;36669;51.428;21.162;2023-09-19T05:48:44;18.30;99.90
44886;DHT22;36669;51.428;21.162;2023-09-19T05:51:12;18.30;99.90
44886;DHT22;36669;51.428;21.162;2023-09-19T05:53:40;18.30;99.90
44886;DHT22;36669;51.428;21.162;2023-09-19T05:56:08;18.40;99.90
44886;DHT22;36669;51.428;21.162;2023-09-19T05:58:37;18.40;99.90
44886;DHT22;36669;51.428;21.162;2023-09-19T06:01:07;18.50;99.90
44886;DHT22;36669;51.428;21.162;2023-09-19T06:03:35;18.50;99.90
44886;DHT22;36669;51.428;21.162;2023-09-19T06:06:02;18.50;99.90
44886;DHT22;36669;51.428;21.162;2023-09-19T06:08:29;18.60;99.90
44886;DHT22;36669;51.428;21.162;2023-09-19T06:10:57;18.60;99.90
44886;DHT22;36669;51.428;21.162;2023-09-19T06:13:25;18.60;99.90
44886;DHT22;36669;51.428;21.162;2023-09-19T06:15:55;18.70;99.90
44886;DHT22;36669;51.428;21.162;2023-09-19T06:18:23;18.80;99.90
44886;DHT22;36669;51.428;21.162;2023-09-19T06:20:54;18.80;99.90
44886;DHT22;36669;51.428;21.162;2023-09-19T06:23:23;18.90;99.90
44886;DHT22;36669;51.428;21.162;2023-09-19T06:25:51;18.90;99.90
44886;DHT22;36669;51.428;21.162;2023-09-19T06:28:17;19.00;99.90
44886;DHT22;36669;51.428;21.162;2023-09-19T06:30:49;19.10;99.90
44886;DHT22;36669;51.428;21.162;2023-09-19T06:33:16;19.10;99.90
44886;DHT22;36669;51.428;21.162;2023-09-19T06:35:45;19.20;99.90
44886;DHT22;36669;51.428;21.162;2023-09-19T06:38:15;19.30;99.90
44886;DHT22;36669;51.428;21.162;2023-09-19T06:40:42;19.30;99.90
44886;DHT22;36669;51.428;21.162;2023-09-19T06:43:10;19.30;99.90
44886;DHT22;36669;51.428;21.162;2023-09-19T06:45:36;19.40;99.90
44886;DHT22;36669;51.428;21.162;2023-09-19T06:48:03;19.40;99.90
44886;DHT22;36669;51.428;21.162;2023-09-19T06:50:32;19.40;99.90
44886;DHT22;36669;51.428;21.162;2023-09-19T06:53:00;19.50;99.90
44886;DHT22;36669;51.428;21.162;2023-09-19T06:55:30;19.50;99.90
44886;DHT22;36669;51.428;21.162;2023-09-19T06:57:58;19.50;99.90
44886;DHT22;36669;51.428;21.162;2023-09-19T07:00:27;19.50;99.90
44886;DHT22;36669;51.428;21.162;2023-09-19T07:03:00;19.50;99.90
44886;DHT22;36669;51.428;21.162;2023-09-19T07:05:34;19.50;99.90
44886;DHT22;36669;51.428;21.162;2023-09-19T07:08:07;19.50;99.90
44886;DHT22;36669;51.428;21.162;2023-09-19T07:10:33;19.50;99.90
44886;DHT22;36669;51.428;21.162;2023-09-19T07:13:07;19.60;99.90
44886;DHT22;36669;51.428;21.162;2023-09-19T07:15:41;19.60;99.90
44886;DHT22;36669;51.428;21.162;2023-09-19T07:18:15;19.70;99.90
44886;DHT22;36669;51.428;21.162;2023-09-19T07:20:43;19.70;99.90
44886;DHT22;36669;51.428;21.162;2023-09-19T07:23:19;19.80;99.90
44886;DHT22;36669;51.428;21.162;2023-09-19T07:25:49;19.80;99.90
44886;DHT22;36669;51.428;21.162;2023-09-19T07:28:18;19.80;99.90
44886;DHT22;36669;51.428;21.162;2023-09-19T07:30:43;19.80;99.90
44886;DHT22;36669;51.428;21.162;2023-09-19T07:33:10;19.80;99.90
44886;DHT22;36669;51.428;21.162;2023-09-19T07:35:40;19.80;99.90
44886;DHT22;36669;51.428;21.162;2023-09-19T07:38:06;19.80;99.90
44886;DHT22;36669;51.428;21.162;2023-09-19T07:40:34;19.80;99.90
44886;DHT22;36669;51.428;21.162;2023-09-19T07:43:01;19.80;99.90
44886;DHT22;36669;51.428;21.162;2023-09-19T07:45:47;19.80;99.90
44886;DHT22;36669;51.428;21.162;2023-09-19T07:48:16;19.80;99.90
44886;DHT22;36669;51.428;21.162;2023-09-19T07:50:44;19.80;99.90
44886;DHT22;36669;51.428;21.162;2023-09-19T07:53:12;19.80;99.90
44886;DHT22;36669;51.428;21.162;2023-09-19T07:55:45;19.80;99.90
44886;DHT22;36669;51.428;21.162;2023-09-19T07:58:15;19.80;99.90
44886;DHT22;36669;51.428;21.162;2023-09-19T08:00:44;19.80;99.90
44886;DHT22;36669;51.428;21.162;2023-09-19T08:03:12;19.90;99.90
44886;DHT22;36669;51.428;21.162;2023-09-19T08:05:41;19.80;99.90
44886;DHT22;36669;51.428;21.162;2023-09-19T08:08:10;19.80;99.90
44886;DHT22;36669;51.428;21.162;2023-09-19T08:10:40;19.80;99.90
44886;DHT22;36669;51.428;21.162;2023-09-19T08:13:09;19.90;99.90
44886;DHT22;36669;51.428;21.162;2023-09-19T08:15:44;19.90;99.90
44886;DHT22;36669;51.428;21.162;2023-09-19T08:18:11;19.90;99.90
44886;DHT22;36669;51.428;21.162;2023-09-19T08:20:39;19.90;99.90
44886;DHT22;36669;51.428;21.162;2023-09-19T08:23:09;19.90;99.90
44886;DHT22;36669;51.428;21.162;2023-09-19T08:25:36;20.00;99.90
44886;DHT22;36669;51.428;21.162;2023-09-19T08:28:07;20.10;99.90
44886;DHT22;36669;51.428;21.162;2023-09-19T08:30:39;20.10;99.90
44886;DHT22;36669;51.428;21.162;2023-09-19T08:33:08;20.20;99.90
44886;DHT22;36669;51.428;21.162;2023-09-19T08:35:35;20.20;99.90
44886;DHT22;36669;51.428;21.162;2023-09-19T08:38:04;20.30;99.90
44886;DHT22;36669;51.428;21.162;2023-09-19T08:40:43;20.30;99.90
44886;DHT22;36669;51.428;21.162;2023-09-19T08:43:10;20.30;99.90
44886;DHT22;36669;51.428;21.162;2023-09-19T08:45:48;20.30;99.90
44886;DHT22;36669;51.428;21.162;2023-09-19T08:48:26;20.40;99.90
44886;DHT22;36669;51.428;21.162;2023-09-19T08:50:59;20.40;99.90
44886;DHT22;36669;51.428;21.162;2023-09-19T08:54:03;20.30;99.90
44886;DHT22;36669;51.428;21.162;2023-09-19T08:56:32;20.30;99.90
44886;DHT22;36669;51.428;21.162;2023-09-19T08:59:07;20.20;99.90
44886;DHT22;36669;51.428;21.162;2023-09-19T09:01:39;20.20;99.90
44886;DHT22;36669;51.428;21.162;2023-09-19T09:04:09;20.30;99.90
44886;DHT22;36669;51.428;21.162;2023-09-19T09:06:41;20.30;99.90
44886;DHT22;36669;51.428;21.162;2023-09-19T09:09:11;20.30;99.90
44886;DHT22;36669;51.428;21.162;2023-09-19T09:11:38;20.30;99.90
44886;DHT22;36669;51.428;21.162;2023-09-19T09:14:08;20.30;99.90
44886;DHT22;36669;51.428;21.162;2023-09-19T09:16:35;20.40;99.90
44886;DHT22;36669;51.428;21.162;2023-09-19T09:19:04;20.40;99.90
44886;DHT22;36669;51.428;21.162;2023-09-19T09:21:31;20.40;99.90
44886;DHT22;36669;51.428;21.162;2023-09-19T09:24:30;20.50;99.90
44886;DHT22;36669;51.428;21.162;2023-09-19T09:26:57;20.50;99.90
44886;DHT22;36669;51.428;21.162;2023-09-19T09:29:52;20.50;99.90
44886;DHT22;36669;51.428;21.162;2023-09-19T09:32:40;20.40;99.90
44886;DHT22;36669;51.428;21.162;2023-09-19T09:35:09;19.90;99.90
44886;DHT22;36669;51.428;21.162;2023-09-19T09:37:36;19.80;99.90
44886;DHT22;36669;51.428;21.162;2023-09-19T09:40:05;19.90;99.90
44886;DHT22;36669;51.428;21.162;2023-09-19T09:42:49;19.70;99.90
44886;DHT22;36669;51.428;21.162;2023-09-19T09:45:43;19.50;99.90
44886;DHT22;36669;51.428;21.162;2023-09-19T09:48:16;19.60;99.90
44886;DHT22;36669;51.428;21.162;2023-09-19T09:51:08;19.70;99.90
44886;DHT22;36669;51.428;21.162;2023-09-19T09:53:34;19.40;99.90
44886;DHT22;36669;51.428;21.162;2023-09-19T09:56:09;19.50;99.90
44886;DHT22;36669;51.428;21.162;2023-09-19T09:58:54;19.50;99.90
44886;DHT22;36669;51.428;21.162;2023-09-19T10:01:23;19.50;99.90
44886;DHT22;36669;51.428;21.162;2023-09-19T10:04:03;19.50;99.90
44886;DHT22;36669;51.428;21.162;2023-09-19T10:06:41;19.50;99.90
44886;DHT22;36669;51.428;21.162;2023-09-19T10:09:13;19.60;99.90
44886;DHT22;36669;51.428;21.162;2023-09-19T10:12:00;19.80;99.90
44886;DHT22;36669;51.428;21.162;2023-09-19T10:14:35;19.80;99.90
44886;DHT22;36669;51.428;21.162;2023-09-19T10:17:05;19.80;99.90
44886;DHT22;36669;51.428;21.162;2023-09-19T10:19:58;19.80;99.90
44886;DHT22;36669;51.428;21.162;2023-09-19T10:22:27;19.80;99.90
44886;DHT22;36669;51.428;21.162;2023-09-19T10:25:04;19.70;99.90
44886;DHT22;36669;51.428;21.162;2023-09-19T10:27:39;19.70;99.90
44886;DHT22;36669;51.428;21.162;2023-09-19T10:30:08;19.60;99.90
44886;DHT22;36669;51.428;21.162;2023-09-19T10:32:39;19.50;99.90
44886;DHT22;36669;51.428;21.162;2023-09-19T10:35:08;19.40;99.90
44886;DHT22;36669;51.428;21.162;2023-09-19T10:37:38;19.30;99.90
44886;DHT22;36669;51.428;21.162;2023-09-19T10:40:08;19.20;99.90
44886;DHT22;36669;51.428;21.162;2023-09-19T10:42:38;19.20;99.90
44886;DHT22;36669;51.428;21.162;2023-09-19T10:45:10;19.00;99.90
44886;DHT22;36669;51.428;21.162;2023-09-19T10:47:40;19.00;99.90
44886;DHT22;36669;51.428;21.162;2023-09-19T10:50:07;19.00;99.90
44886;DHT22;36669;51.428;21.162;2023-09-19T10:52:40;18.90;99.90
44886;DHT22;36669;51.428;21.162;2023-09-19T10:55:19;18.90;99.90
44886;DHT22;36669;51.428;21.162;2023-09-19T10:57:47;18.90;99.90
44886;DHT22;36669;51.428;21.162;2023-09-19T11:00:17;18.90;99.90
44886;DHT22;36669;51.428;21.162;2023-09-19T11:05:41;18.80;99.90
44886;DHT22;36669;51.428;21.162;2023-09-19T11:08:10;18.80;99.90
44886;DHT22;36669;51.428;21.162;2023-09-19T11:10:50;18.80;99.90
44886;DHT22;36669;51.428;21.162;2023-09-19T11:13:30;18.70;99.90
44886;DHT22;36669;51.428;21.162;2023-09-19T11:16:08;18.60;99.90
44886;DHT22;36669;51.428;21.162;2023-09-19T11:18:53;18.50;99.90
44886;DHT22;36669;51.428;21.162;2023-09-19T11:24:27;18.40;99.90
44886;DHT22;36669;51.428;21.162;2023-09-19T11:27:18;18.40;99.90
44886;DHT22;36669;51.428;21.162;2023-09-19T11:29:47;18.40;99.90
44886;DHT22;36669;51.428;21.162;2023-09-19T11:32:15;18.30;99.90
44886;DHT22;36669;51.428;21.162;2023-09-19T11:34:44;18.30;99.90
44886;DHT22;36669;51.428;21.162;2023-09-19T11:40:06;18.30;99.90
44886;DHT22;36669;51.428;21.162;2023-09-19T11:42:47;18.30;99.90
44886;DHT22;36669;51.428;21.162;2023-09-19T11:48:18;18.30;99.90
44886;DHT22;36669;51.428;21.162;2023-09-19T11:50:47;18.20;99.90
44886;DHT22;36669;51.428;21.162;2023-09-19T11:53:31;18.20;99.90
44886;DHT22;36669;51.428;21.162;2023-09-19T11:56:20;18.30;99.90
44886;DHT22;36669;51.428;21.162;2023-09-19T11:58:52;18.30;99.90
44886;DHT22;36669;51.428;21.162;2023-09-19T12:01:33;18.30;99.90
44886;DHT22;36669;51.428;21.162;2023-09-19T12:04:02;18.20;99.90
44886;DHT22;36669;51.428;21.162;2023-09-19T12:06:31;18.20;99.90
44886;DHT22;36669;51.428;21.162;2023-09-19T12:09:19;18.20;99.90
44886;DHT22;36669;51.428;21.162;2023-09-19T12:11:48;18.20;99.90
44886;DHT22;36669;51.428;21.162;2023-09-19T12:14:26;18.20;99.90
44886;DHT22;36669;51.428;21.162;2023-09-19T12:16:55;18.10;99.90
44886;DHT22;36669;51.428;21.162;2023-09-19T12:19:23;18.10;99.90
44886;DHT22;36669;51.428;21.162;2023-09-19T12:21:57;18.10;99.90
44886;DHT22;36669;51.428;21.162;2023-09-19T12:24:26;18.10;99.90
44886;DHT22;36669;51.428;21.162;2023-09-19T12:27:06;18.10;99.90
44886;DHT22;36669;51.428;21.162;2023-09-19T12:29:53;18.10;99.90
44886;DHT22;36669;51.428;21.162;2023-09-19T12:32:41;18.10;99.90
44886;DHT22;36669;51.428;21.162;2023-09-19T12:35:08;18.00;99.90
44886;DHT22;36669;51.428;21.162;2023-09-19T12:37:43;18.00;99.90
44886;DHT22;36669;51.428;21.162;2023-09-19T12:40:24;17.90;99.90
44886;DHT22;36669;51.428;21.162;2023-09-19T12:42:56;17.90;99.90
44886;DHT22;36669;51.428;21.162;2023-09-19T12:45:25;17.90;99.90
44886;DHT22;36669;51.428;21.162;2023-09-19T12:48:21;17.90;99.90
44886;DHT22;36669;51.428;21.162;2023-09-19T12:51:06;17.90;99.90
44886;DHT22;36669;51.428;21.162;2023-09-19T12:53:37;17.90;99.90
44886;DHT22;36669;51.428;21.162;2023-09-19T12:56:07;17.80;99.90
44886;DHT22;36669;51.428;21.162;2023-09-19T12:58:58;17.80;99.90
44886;DHT22;36669;51.428;21.162;2023-09-19T13:01:33;17.80;99.90
44886;DHT22;36669;51.428;21.162;2023-09-19T13:04:19;17.80;99.90
44886;DHT22;36669;51.428;21.162;2023-09-19T13:06:50;17.90;99.90
44886;DHT22;36669;51.428;21.162;2023-09-19T13:09:18;17.90;99.90
44886;DHT22;36669;51.428;21.162;2023-09-19T13:11:45;17.90;99.90
44886;DHT22;36669;51.428;21.162;2023-09-19T13:14:28;17.90;99.90
44886;DHT22;36669;51.428;21.162;2023-09-19T13:17:08;17.80;99.90
44886;DHT22;36669;51.428;21.162;2023-09-19T13:19:51;17.90;99.90
44886;DHT22;36669;51.428;21.162;2023-09-19T13:22:44;17.90;99.90
44886;DHT22;36669;51.428;21.162;2023-09-19T13:25:25;18.00;99.90
44886;DHT22;36669;51.428;21.162;2023-09-19T13:27:57;18.00;99.90
44886;DHT22;36669;51.428;21.162;2023-09-19T13:30:30;18.00;99.90
44886;DHT22;36669;51.428;21.162;2023-09-19T13:33:11;18.00;99.90
44886;DHT22;36669;51.428;21.162;2023-09-19T13:35:41;18.00;99.90
44886;DHT22;36669;51.428;21.162;2023-09-19T13:38:08;18.00;99.90
44886;DHT22;36669;51.428;21.162;2023-09-19T13:40:40;18.00;99.90
44886;DHT22;36669;51.428;21.162;2023-09-19T13:43:08;18.10;99.90
44886;DHT22;36669;51.428;21.162;2023-09-19T13:45:35;18.10;99.90
44886;DHT22;36669;51.428;21.162;2023-09-19T13:48:04;18.00;99.90
44886;DHT22;36669;51.428;21.162;2023-09-19T13:50:30;18.10;99.90
44886;DHT22;36669;51.428;21.162;2023-09-19T13:52:59;18.00;99.90
44886;DHT22;36669;51.428;21.162;2023-09-19T13:55:29;17.90;99.90
44886;DHT22;36669;51.428;21.162;2023-09-19T13:57:56;18.00;99.90
44886;DHT22;36669;51.428;21.162;2023-09-19T14:00:26;18.00;99.90
44886;DHT22;36669;51.428;21.162;2023-09-19T14:02:54;18.00;99.90
44886;DHT22;36669;51.428;21.162;2023-09-19T14:05:24;18.00;99.90
44886;DHT22;36669;51.428;21.162;2023-09-19T14:07:54;18.00;99.90
44886;DHT22;36669;51.428;21.162;2023-09-19T14:10:23;18.00;99.90
44886;DHT22;36669;51.428;21.162;2023-09-19T14:12:51;18.00;99.90
44886;DHT22;36669;51.428;21.162;2023-09-19T14:15:18;18.00;99.90
44886;DHT22;36669;51.428;21.162;2023-09-19T14:17:45;18.10;99.90
44886;DHT22;36669;51.428;21.162;2023-09-19T14:20:12;18.00;99.90
44886;DHT22;36669;51.428;21.162;2023-09-19T14:22:39;18.10;99.90
44886;DHT22;36669;51.428;21.162;2023-09-19T14:25:06;18.10;99.90
44886;DHT22;36669;51.428;21.162;2023-09-19T14:27:34;18.10;99.90
44886;DHT22;36669;51.428;21.162;2023-09-19T14:29:59;18.10;99.90
44886;DHT22;36669;51.428;21.162;2023-09-19T14:32:27;18.10;99.90
44886;DHT22;36669;51.428;21.162;2023-09-19T14:34:54;18.10;99.90
44886;DHT22;36669;51.428;21.162;2023-09-19T14:37:21;18.10;99.90
44886;DHT22;36669;51.428;21.162;2023-09-19T14:39:46;18.10;99.90
44886;DHT22;36669;51.428;21.162;2023-09-19T14:42:16;18.10;99.90
44886;DHT22;36669;51.428;21.162;2023-09-19T14:44:46;18.10;99.90
44886;DHT22;36669;51.428;21.162;2023-09-19T14:47:14;18.20;99.90
44886;DHT22;36669;51.428;21.162;2023-09-19T14:49:40;18.20;99.90
44886;DHT22;36669;51.428;21.162;2023-09-19T14:52:09;18.20;99.90
44886;DHT22;36669;51.428;21.162;2023-09-19T14:54:37;18.30;99.90
44886;DHT22;36669;51.428;21.162;2023-09-19T14:57:09;18.30;99.90
44886;DHT22;36669;51.428;21.162;2023-09-19T14:59:39;18.30;99.90
44886;DHT22;36669;51.428;21.162;2023-09-19T15:02:08;18.30;99.90
44886;DHT22;36669;51.428;21.162;2023-09-19T15:04:35;18.30;99.90
44886;DHT22;36669;51.428;21.162;2023-09-19T15:07:02;18.40;99.90
44886;DHT22;36669;51.428;21.162;2023-09-19T15:09:28;18.40;99.90
44886;DHT22;36669;51.428;21.162;2023-09-19T15:12:01;18.50;99.90
44886;DHT22;36669;51.428;21.162;2023-09-19T15:14:27;18.50;99.90
44886;DHT22;36669;51.428;21.162;2023-09-19T15:16:57;18.50;99.90
44886;DHT22;36669;51.428;21.162;2023-09-19T15:19:24;18.50;99.90
44886;DHT22;36669;51.428;21.162;2023-09-19T15:21:52;18.50;99.90
44886;DHT22;36669;51.428;21.162;2023-09-19T15:24:21;18.50;99.90
44886;DHT22;36669;51.428;21.162;2023-09-19T15:26:49;18.50;99.90
44886;DHT22;36669;51.428;21.162;2023-09-19T15:29:17;18.50;99.90
44886;DHT22;36669;51.428;21.162;2023-09-19T15:31:44;18.50;99.90
44886;DHT22;36669;51.428;21.162;2023-09-19T15:34:12;18.50;99.90
44886;DHT22;36669;51.428;21.162;2023-09-19T15:36:43;18.50;99.90
44886;DHT22;36669;51.428;21.162;2023-09-19T15:39:13;18.50;99.90
44886;DHT22;36669;51.428;21.162;2023-09-19T15:41:45;18.50;99.90
44886;DHT22;36669;51.428;21.162;2023-09-19T15:44:15;18.50;99.90
44886;DHT22;36669;51.428;21.162;2023-09-19T15:46:42;18.40;99.90
44886;DHT22;36669;51.428;21.162;2023-09-19T15:49:11;18.40;99.90
44886;DHT22;36669;51.428;21.162;2023-09-19T15:51:39;18.40;99.90
44886;DHT22;36669;51.428;21.162;2023-09-19T15:54:14;18.40;99.90
44886;DHT22;36669;51.428;21.162;2023-09-19T15:56:42;18.40;99.90
44886;DHT22;36669;51.428;21.162;2023-09-19T15:59:10;18.40;99.90
44886;DHT22;36669;51.428;21.162;2023-09-19T16:01:40;18.40;99.90
44886;DHT22;36669;51.428;21.162;2023-09-19T16:04:08;18.40;99.90
44886;DHT22;36669;51.428;21.162;2023-09-19T16:06:39;18.40;99.90